createdAt,value
2023-02-02T00:01:47.010Z,10.01
2023-02-02T00:04:19.243Z,10.04
2023-02-02T00:06:48.633Z,9.97
2023-02-02T00:09:19.180Z,10.02
2023-02-02T00:11:51.125Z,9.97
2023-02-02T00:14:19.829Z,9.90
2023-02-02T00:16:49.167Z,10.00
2023-02-02T00:19:20.572Z,9.96
2023-02-02T00:21:49.586Z,10.02
2023-02-02T00:24:19.508Z,9.98
2023-02-02T00:26:52.140Z,9.89
2023-02-02T00:29:23.554Z,9.72
2023-02-02T00:31:52.784Z,9.93
2023-02-02T00:34:21.991Z,10.00
2023-02-02T00:36:51.799Z,9.87
2023-02-02T00:39:25.451Z,9.93
2023-02-02T00:41:55.875Z,9.27
2023-02-02T00:44:41.681Z,9.92
2023-02-02T00:47:10.051Z,9.88
2023-02-02T00:49:38.305Z,9.88
2023-02-02T00:52:06.768Z,9.85
2023-02-02T00:54:35.085Z,9.89
2023-02-02T00:57:05.815Z,9.93
2023-02-02T00:59:34.670Z,9.96
2023-02-02T01:02:03.137Z,9.89
2023-02-02T01:04:31.656Z,9.86
2023-02-02T01:07:00.069Z,9.97
2023-02-02T01:09:28.588Z,9.97
2023-02-02T01:11:56.997Z,9.95
2023-02-02T01:14:28.535Z,10.11
2023-02-02T01:16:57.456Z,10.07
2023-02-02T01:19:27.810Z,10.05
2023-02-02T01:21:56.249Z,10.10
2023-02-02T01:24:24.560Z,9.98
2023-02-02T01:26:52.885Z,10.08
2023-02-02T01:29:21.245Z,9.98
2023-02-02T01:31:51.109Z,10.01
2023-02-02T01:34:19.809Z,9.98
2023-02-02T01:36:48.270Z,9.95
2023-02-02T01:39:16.710Z,9.96
2023-02-02T01:41:45.023Z,9.91
2023-02-02T01:45:11.121Z,9.92
2023-02-02T01:47:48.614Z,9.95
2023-02-02T01:50:19.329Z,9.87
2023-02-02T01:52:50.236Z,9.86
2023-02-02T01:55:23.621Z,9.90
2023-02-02T01:57:57.990Z,9.89
2023-02-02T02:00:27.823Z,9.86
2023-02-02T02:03:02.436Z,9.82
2023-02-02T02:05:36.531Z,9.77
2023-02-02T02:08:13.359Z,9.75
2023-02-02T02:10:41.831Z,9.77
2023-02-02T02:13:10.655Z,9.82
2023-02-02T02:16:05.890Z,9.79
2023-02-02T02:18:47.085Z,9.75
2023-02-02T02:22:10.703Z,9.79
2023-02-02T02:25:37.438Z,9.60
2023-02-02T02:28:35.821Z,9.66
2023-02-02T02:31:49.146Z,9.69
2023-02-02T02:34:28.120Z,9.72
2023-02-02T02:37:05.361Z,9.06
2023-02-02T02:39:40.044Z,9.86
2023-02-02T02:42:16.436Z,9.90
2023-02-02T02:44:46.315Z,9.75
2023-02-02T02:47:14.844Z,9.83
2023-02-02T02:49:46.331Z,9.88
2023-02-02T02:52:15.900Z,9.70
2023-02-02T02:54:49.823Z,9.91
2023-02-02T02:57:39.380Z,9.82
2023-02-02T03:00:27.233Z,9.81
2023-02-02T03:03:04.530Z,9.93
2023-02-02T03:05:44.802Z,9.86
2023-02-02T03:08:18.903Z,9.95
2023-02-02T03:10:48.527Z,9.98
2023-02-02T03:13:17.960Z,9.89
2023-02-02T03:15:47.871Z,9.34
2023-02-02T03:18:19.162Z,9.91
2023-02-02T03:20:48.977Z,9.76
2023-02-02T03:23:17.665Z,9.83
2023-02-02T03:25:46.447Z,9.89
2023-02-02T03:28:15.878Z,9.75
2023-02-02T03:30:46.282Z,9.89
2023-02-02T03:33:16.387Z,9.62
2023-02-02T03:35:44.820Z,9.82
2023-02-02T03:38:14.542Z,9.78
2023-02-02T03:40:43.087Z,9.76
2023-02-02T03:43:11.562Z,9.80
2023-02-02T03:45:40.820Z,9.89
2023-02-02T03:48:09.340Z,9.86
2023-02-02T03:50:38.743Z,9.90
2023-02-02T03:53:07.243Z,9.85
2023-02-02T03:55:38.924Z,9.88
2023-02-02T03:58:07.337Z,9.81
2023-02-02T04:00:38.813Z,9.45
2023-02-02T04:03:07.354Z,9.74
2023-02-02T04:05:35.733Z,9.84
2023-02-02T04:08:04.117Z,9.76
2023-02-02T04:10:32.416Z,9.85
2023-02-02T04:13:05.157Z,9.87
2023-02-02T04:15:33.533Z,9.91
2023-02-02T04:18:03.726Z,10.03
2023-02-02T04:20:32.123Z,9.94
2023-02-02T04:23:00.729Z,9.95
2023-02-02T04:25:29.176Z,10.02
2023-02-02T04:27:57.517Z,9.66
2023-02-02T04:30:27.239Z,9.98
2023-02-02T04:32:56.564Z,9.86
2023-02-02T04:35:25.164Z,9.99
2023-02-02T04:37:53.687Z,9.87
2023-02-02T04:40:22.031Z,9.96
2023-02-02T04:42:53.251Z,9.98
2023-02-02T04:45:21.875Z,10.09
2023-02-02T04:47:52.351Z,9.57
2023-02-02T04:50:20.853Z,9.92
2023-02-02T04:52:49.159Z,9.93
2023-02-02T04:55:17.931Z,9.85
2023-02-02T04:57:46.416Z,10.21
2023-02-02T05:00:17.004Z,10.16
2023-02-02T05:02:45.494Z,10.08
2023-02-02T05:05:16.108Z,10.03
2023-02-02T05:07:44.473Z,10.11
2023-02-02T05:10:13.844Z,8.11
2023-02-02T05:12:44.946Z,10.15
2023-02-02T05:15:13.479Z,10.15
2023-02-02T05:17:41.817Z,10.10
2023-02-02T05:20:12.226Z,10.08
2023-02-02T05:22:42.120Z,10.08
2023-02-02T05:25:11.408Z,10.13
2023-02-02T05:27:39.724Z,9.86
2023-02-02T05:30:10.656Z,9.56
2023-02-02T05:32:39.017Z,9.89
2023-02-02T05:35:09.760Z,9.98
2023-02-02T05:37:38.306Z,9.81
2023-02-02T05:40:09.753Z,10.02
2023-02-02T05:42:38.218Z,9.92
2023-02-02T05:45:07.732Z,10.00
2023-02-02T05:47:36.633Z,10.09
2023-02-02T05:50:05.163Z,10.05
2023-02-02T05:52:36.607Z,9.90
2023-02-02T05:55:07.909Z,9.96
2023-02-02T05:57:36.336Z,9.74
2023-02-02T06:00:06.718Z,10.00
2023-02-02T06:02:40.631Z,9.77
2023-02-02T06:05:10.123Z,9.82
2023-02-02T06:07:38.509Z,9.89
2023-02-02T06:10:09.247Z,9.96
2023-02-02T06:12:37.423Z,9.93
2023-02-02T06:15:07.293Z,10.04
2023-02-02T06:17:36.106Z,9.85
2023-02-02T06:20:05.743Z,9.87
2023-02-02T06:22:34.447Z,10.12
2023-02-02T06:25:04.392Z,10.09
2023-02-02T06:27:34.139Z,10.03
2023-02-02T06:30:02.665Z,9.76
2023-02-02T06:32:31.259Z,9.87
2023-02-02T06:34:59.636Z,9.99
2023-02-02T06:37:30.584Z,10.02
2023-02-02T06:39:59.090Z,10.07
2023-02-02T06:42:29.852Z,9.71
2023-02-02T06:44:59.726Z,9.83
2023-02-02T06:47:28.116Z,10.03
2023-02-02T06:49:56.430Z,10.03
2023-02-02T06:52:24.962Z,10.05
2023-02-02T06:54:53.277Z,10.07
2023-02-02T06:57:21.814Z,9.83
2023-02-02T06:59:51.224Z,9.93
2023-02-02T07:02:23.641Z,10.05
2023-02-02T07:04:52.985Z,10.01
2023-02-02T07:07:21.447Z,9.94
2023-02-02T07:09:58.116Z,10.06
2023-02-02T07:12:28.800Z,10.11
2023-02-02T07:14:59.411Z,9.49
2023-02-02T07:17:29.216Z,7.84
2023-02-02T07:19:57.635Z,9.95
2023-02-02T07:22:26.155Z,9.67
2023-02-02T07:24:54.561Z,10.00
2023-02-02T07:27:22.981Z,10.05
2023-02-02T07:29:51.528Z,9.99
2023-02-02T07:32:20.107Z,9.46
2023-02-02T07:34:49.835Z,9.72
2023-02-02T07:37:18.422Z,9.88
2023-02-02T07:39:46.836Z,9.87
2023-02-02T07:42:15.445Z,9.51
2023-02-02T07:44:43.960Z,9.73
2023-02-02T07:47:12.368Z,9.77
2023-02-02T07:49:40.941Z,9.77
2023-02-02T07:52:13.095Z,9.76
2023-02-02T07:54:41.439Z,9.75
2023-02-02T07:57:13.784Z,9.70
2023-02-02T07:59:42.317Z,9.77
2023-02-02T08:02:11.603Z,9.89
2023-02-02T08:04:40.025Z,9.76
2023-02-02T08:07:08.393Z,9.70
2023-02-02T08:09:40.781Z,9.51
2023-02-02T08:12:09.205Z,9.57
2023-02-02T08:14:37.797Z,9.46
2023-02-02T08:17:09.334Z,9.75
2023-02-02T08:19:37.740Z,9.81
2023-02-02T08:22:06.145Z,9.88
2023-02-02T08:24:34.675Z,9.88
2023-02-02T08:27:06.665Z,9.82
2023-02-02T08:29:35.385Z,9.84
2023-02-02T08:32:04.361Z,9.92
2023-02-02T08:34:34.903Z,9.98
2023-02-02T08:37:03.515Z,9.57
2023-02-02T08:39:31.912Z,9.91
2023-02-02T08:42:00.449Z,9.79
2023-02-02T08:46:00.114Z,10.00
2023-02-02T08:47:18.808Z,10.00
2023-02-02T08:49:47.445Z,10.02
2023-02-02T08:52:15.885Z,10.04
2023-02-02T08:54:44.220Z,10.15
2023-02-02T08:57:12.754Z,10.16
2023-02-02T08:59:42.474Z,9.57
2023-02-02T09:02:14.069Z,9.99
2023-02-02T09:04:45.345Z,9.84
2023-02-02T09:07:13.810Z,10.22
2023-02-02T09:09:42.242Z,10.21
2023-02-02T09:12:10.656Z,10.32
2023-02-02T09:14:39.063Z,10.39
2023-02-02T09:17:08.830Z,10.30
2023-02-02T09:19:37.195Z,10.00
2023-02-02T09:22:05.596Z,10.30
2023-02-02T09:24:34.031Z,10.38
2023-02-02T09:27:02.726Z,10.64
2023-02-02T09:29:31.365Z,10.79
2023-02-02T09:31:59.801Z,10.68
2023-02-02T09:34:29.685Z,11.13
2023-02-02T09:36:58.488Z,11.29
2023-02-02T09:39:26.969Z,11.29
2023-02-02T09:42:33.878Z,11.36
2023-02-02T09:45:10.089Z,11.42
2023-02-02T09:47:55.675Z,11.33
2023-02-02T09:50:41.535Z,11.47
2023-02-02T09:53:19.623Z,11.38
2023-02-02T09:55:53.677Z,11.33
2023-02-02T09:58:27.446Z,11.34
2023-02-02T10:01:04.824Z,11.23
2023-02-02T10:03:39.072Z,11.03
2023-02-02T10:06:23.183Z,11.14
2023-02-02T10:08:56.351Z,11.05
2023-02-02T10:11:34.728Z,11.07
2023-02-02T10:14:07.631Z,10.92
2023-02-02T10:16:37.717Z,10.19
2023-02-02T10:19:12.414Z,10.83
2023-02-02T10:21:49.995Z,10.85
2023-02-02T10:24:21.578Z,10.88
2023-02-02T10:26:52.968Z,11.06
2023-02-02T10:29:48.220Z,11.02
2023-02-02T10:32:25.100Z,11.18
2023-02-02T10:35:17.301Z,11.09
2023-02-02T10:37:56.514Z,9.30
2023-02-02T10:40:42.091Z,11.27
2023-02-02T10:43:54.566Z,11.31
2023-02-02T10:46:29.020Z,11.44
2023-02-02T10:49:14.798Z,11.47
2023-02-02T10:51:47.299Z,11.44
2023-02-02T10:54:56.472Z,11.74
2023-02-02T10:57:48.169Z,11.51
2023-02-02T11:00:24.186Z,11.79
2023-02-02T11:02:53.945Z,11.83
2023-02-02T11:05:43.428Z,11.65
2023-02-02T11:08:16.658Z,11.81
2023-02-02T11:10:49.017Z,11.82
2023-02-02T11:13:28.204Z,11.16
2023-02-02T11:16:21.995Z,11.83
2023-02-02T11:18:51.199Z,11.71
2023-02-02T11:21:27.541Z,11.67
2023-02-02T11:24:01.152Z,10.66
2023-02-02T11:26:44.946Z,11.56
2023-02-02T11:29:17.496Z,11.41
2023-02-02T11:31:46.910Z,11.41
2023-02-02T11:34:22.055Z,11.34
2023-02-02T11:37:14.759Z,11.25
2023-02-02T11:39:44.723Z,11.19
2023-02-02T11:42:19.192Z,11.16
2023-02-02T11:44:51.489Z,11.04
2023-02-02T11:47:27.923Z,11.13
2023-02-02T11:49:59.672Z,11.06
2023-02-02T11:52:32.726Z,11.09
2023-02-02T11:55:04.036Z,11.00
2023-02-02T11:57:33.861Z,10.58
2023-02-02T12:00:19.873Z,10.01
2023-02-02T12:02:49.488Z,9.68
2023-02-02T12:05:37.463Z,11.18
2023-02-02T12:08:06.945Z,11.05
2023-02-02T12:10:43.541Z,11.15
2023-02-02T12:13:32.624Z,11.11
2023-02-02T12:16:20.744Z,11.08
2023-02-02T12:19:06.669Z,11.12
2023-02-02T12:21:44.332Z,11.13
2023-02-02T12:24:31.366Z,10.96
2023-02-02T12:27:19.372Z,10.92
2023-02-02T12:30:24.589Z,10.84
2023-02-02T12:33:08.708Z,10.83
2023-02-02T12:35:59.141Z,10.68
2023-02-02T12:39:01.727Z,10.72
2023-02-02T12:41:50.726Z,10.72
2023-02-02T12:44:29.829Z,10.67
2023-02-02T12:47:14.662Z,10.61
2023-02-02T12:50:04.242Z,10.30
2023-02-02T12:52:53.840Z,10.62
2023-02-02T12:55:31.137Z,10.64
2023-02-02T12:58:10.342Z,10.64
2023-02-02T13:01:22.816Z,10.52
2023-02-02T13:04:12.471Z,10.45
2023-02-02T13:07:22.328Z,10.43
2023-02-02T13:10:02.551Z,10.46
2023-02-02T13:12:35.547Z,10.29
2023-02-02T13:15:09.022Z,10.33
2023-02-02T13:17:43.125Z,10.33
2023-02-02T13:20:25.543Z,10.38
2023-02-02T13:23:00.035Z,10.25
2023-02-02T13:25:32.979Z,10.32
2023-02-02T13:28:02.032Z,10.42
2023-02-02T13:30:37.937Z,10.42
2023-02-02T13:33:16.412Z,10.42
2023-02-02T13:35:53.626Z,10.31
2023-02-02T13:38:26.080Z,10.33
2023-02-02T13:40:58.304Z,10.25
2023-02-02T13:43:38.601Z,10.29
2023-02-02T13:46:22.893Z,10.34
2023-02-02T13:49:06.664Z,10.20
2023-02-02T13:51:54.767Z,10.35
2023-02-02T13:55:22.234Z,10.35
2023-02-02T13:58:33.892Z,10.32
2023-02-02T14:01:07.427Z,10.41
2023-02-02T14:03:39.993Z,10.38
2023-02-02T14:06:13.946Z,10.44
2023-02-02T14:08:52.215Z,10.22
2023-02-02T14:11:27.027Z,9.99
2023-02-02T14:14:18.130Z,10.26
2023-02-02T14:16:52.765Z,10.10
2023-02-02T14:19:51.260Z,9.66
2023-02-02T14:22:42.977Z,10.49
2023-02-02T14:25:55.329Z,10.41
2023-02-02T14:28:46.595Z,10.49
2023-02-02T14:31:45.755Z,10.25
2023-02-02T14:34:35.807Z,10.42
2023-02-02T14:37:32.242Z,10.44
2023-02-02T14:40:20.000Z,10.52
2023-02-02T14:43:23.162Z,10.49
2023-02-02T14:46:24.446Z,10.56
2023-02-02T14:49:14.423Z,10.63
2023-02-02T14:51:59.923Z,10.65
2023-02-02T14:54:34.279Z,10.82
2023-02-02T14:57:06.154Z,10.87
2023-02-02T14:59:38.642Z,10.93
2023-02-02T15:02:18.905Z,10.99
2023-02-02T15:04:48.302Z,10.94
2023-02-02T15:07:54.900Z,11.03
2023-02-02T15:11:25.426Z,11.04
2023-02-02T15:14:07.111Z,10.97
2023-02-02T15:16:39.765Z,11.18
2023-02-02T15:19:32.436Z,11.23
2023-02-02T15:22:24.486Z,11.14
2023-02-02T15:24:54.354Z,10.94
2023-02-02T15:27:25.204Z,11.23
2023-02-02T15:29:58.283Z,11.13
2023-02-02T15:32:28.808Z,11.31
2023-02-02T15:35:02.337Z,11.33
2023-02-02T15:37:40.201Z,11.28
2023-02-02T15:40:15.592Z,11.24
2023-02-02T15:42:55.805Z,11.20
2023-02-02T15:45:48.162Z,11.26
2023-02-02T15:48:27.302Z,11.23
2023-02-02T15:50:56.386Z,11.10
2023-02-02T15:53:28.295Z,11.07
2023-02-02T15:55:58.135Z,11.19
2023-02-02T15:58:35.861Z,11.18
2023-02-02T16:01:07.191Z,11.22
2023-02-02T16:03:52.652Z,11.25
2023-02-02T16:06:22.324Z,11.27
2023-02-02T16:08:51.309Z,10.95
2023-02-02T16:11:23.285Z,11.08
2023-02-02T16:14:02.590Z,11.32
2023-02-02T16:16:33.654Z,11.25
2023-02-02T16:19:16.301Z,11.28
2023-02-02T16:21:52.572Z,11.25
2023-02-02T16:24:25.752Z,11.15
2023-02-02T16:26:55.889Z,11.13
2023-02-02T16:29:24.642Z,11.24
2023-02-02T16:31:53.354Z,11.15
2023-02-02T16:34:47.443Z,11.06
2023-02-02T16:37:18.862Z,11.20
2023-02-02T16:39:47.330Z,11.25
2023-02-02T16:42:27.017Z,10.96
2023-02-02T16:44:59.357Z,11.36
2023-02-02T16:47:39.904Z,11.42
2023-02-02T16:50:30.817Z,11.49
2023-02-02T16:53:03.510Z,11.40
2023-02-02T16:55:49.413Z,11.34
2023-02-02T16:58:23.072Z,11.21
2023-02-02T17:01:13.939Z,11.38
2023-02-02T17:03:51.450Z,9.31
2023-02-02T17:06:38.285Z,11.30
2023-02-02T17:09:34.140Z,11.36
2023-02-02T17:12:14.194Z,11.16
2023-02-02T17:14:54.490Z,11.34
2023-02-02T17:17:23.197Z,11.39
2023-02-02T17:19:52.358Z,11.25
2023-02-02T17:22:25.499Z,11.42
2023-02-02T17:24:54.599Z,11.40
2023-02-02T17:27:29.213Z,11.41
2023-02-02T17:29:58.462Z,11.44
2023-02-02T17:32:28.147Z,11.43
2023-02-02T17:34:57.228Z,11.44
2023-02-02T17:37:29.586Z,11.41
2023-02-02T17:39:57.925Z,11.49
2023-02-02T17:42:30.576Z,11.46
2023-02-02T17:44:59.078Z,11.46
2023-02-02T17:47:27.583Z,11.42
2023-02-02T17:49:55.971Z,11.32
2023-02-02T17:52:24.635Z,11.46
2023-02-02T17:54:54.530Z,11.49
2023-02-02T17:57:22.878Z,11.46
2023-02-02T17:59:51.545Z,11.22
2023-02-02T18:02:20.169Z,11.49
2023-02-02T18:04:48.573Z,11.41
2023-02-02T18:07:17.039Z,11.30
2023-02-02T18:09:45.436Z,11.46
2023-02-02T18:12:15.389Z,11.44
2023-02-02T18:14:43.999Z,11.42
2023-02-02T18:17:12.428Z,11.38
2023-02-02T18:19:44.996Z,11.32
2023-02-02T18:22:16.387Z,11.41
2023-02-02T18:24:44.994Z,11.27
2023-02-02T18:27:15.836Z,11.43
2023-02-02T18:29:44.704Z,11.35
2023-02-02T18:32:13.133Z,11.35
2023-02-02T18:34:42.219Z,11.36
2023-02-02T18:37:11.117Z,11.35
2023-02-02T18:39:39.529Z,11.19
2023-02-02T18:42:07.945Z,11.39
2023-02-02T18:44:38.642Z,11.43
2023-02-02T18:47:07.332Z,11.49
2023-02-02T18:49:35.628Z,11.33
2023-02-02T18:52:04.038Z,11.37
2023-02-02T18:54:35.554Z,11.22
2023-02-02T18:57:04.318Z,11.19
2023-02-02T18:59:32.638Z,11.39
2023-02-02T19:02:02.512Z,11.46
2023-02-02T19:04:31.389Z,11.44
2023-02-02T19:07:17.228Z,11.39
2023-02-02T19:09:45.765Z,11.29
2023-02-02T19:12:15.671Z,11.32
2023-02-02T19:14:44.089Z,11.33
2023-02-02T19:17:24.661Z,11.42
2023-02-02T19:19:53.169Z,10.59
2023-02-02T19:22:24.876Z,11.38
2023-02-02T19:24:53.264Z,11.21
2023-02-02T19:27:24.056Z,11.08
2023-02-02T19:29:56.152Z,11.23
2023-02-02T19:32:28.040Z,11.19
2023-02-02T19:35:01.252Z,10.99
2023-02-02T19:37:31.614Z,11.15
2023-02-02T19:40:19.788Z,11.22
2023-02-02T19:42:52.733Z,11.18
2023-02-02T19:45:29.383Z,11.15
2023-02-02T19:48:02.395Z,11.20
2023-02-02T19:50:38.994Z,11.23
2023-02-02T19:53:15.728Z,11.22
2023-02-02T19:55:44.631Z,11.22
2023-02-02T19:58:19.654Z,11.29
2023-02-02T20:00:49.371Z,11.35
2023-02-02T20:03:21.356Z,11.37
2023-02-02T20:05:52.231Z,11.39
2023-02-02T20:08:26.995Z,11.43
2023-02-02T20:10:58.986Z,11.33
2023-02-02T20:13:38.720Z,10.72
2023-02-02T20:16:13.723Z,11.04
2023-02-02T20:18:46.193Z,11.29
2023-02-02T20:21:25.130Z,11.47
2023-02-02T20:23:53.886Z,11.42
2023-02-02T20:26:27.145Z,11.48
2023-02-02T20:28:57.094Z,11.33
2023-02-02T20:31:38.024Z,9.65
2023-02-02T20:34:19.218Z,11.40
2023-02-02T20:36:48.821Z,11.45
2023-02-02T20:39:42.775Z,11.42
2023-02-02T20:42:11.444Z,11.53
2023-02-02T20:44:39.819Z,11.50
2023-02-02T20:47:08.856Z,11.46
2023-02-02T20:49:39.901Z,11.39
2023-02-02T20:52:13.000Z,11.42
2023-02-02T20:54:41.415Z,11.40
2023-02-02T20:57:09.823Z,11.29
2023-02-02T20:59:38.335Z,11.25
2023-02-02T21:02:06.929Z,11.42
2023-02-02T21:04:35.630Z,11.42
2023-02-02T21:07:05.483Z,11.42
2023-02-02T21:09:34.315Z,11.21
2023-02-02T21:12:03.034Z,11.36
2023-02-02T21:14:31.419Z,11.33
2023-02-02T21:17:13.983Z,11.35
2023-02-02T21:19:43.093Z,11.09
2023-02-02T21:22:13.649Z,11.27
2023-02-02T21:24:42.648Z,11.23
2023-02-02T21:27:11.346Z,11.22
2023-02-02T21:29:39.788Z,11.19
2023-02-02T21:32:08.335Z,11.20
2023-02-02T21:34:39.398Z,11.19
2023-02-02T21:37:16.790Z,11.22
2023-02-02T21:39:51.185Z,11.15
2023-02-02T21:42:21.918Z,11.14
2023-02-02T21:44:54.182Z,11.02
2023-02-02T21:47:31.126Z,11.28
2023-02-02T21:50:11.284Z,11.18
2023-02-02T21:52:41.154Z,10.93
2023-02-02T21:55:34.302Z,11.21
2023-02-02T21:58:14.580Z,11.33
2023-02-02T22:00:42.926Z,11.19
2023-02-02T22:03:28.836Z,11.31
2023-02-02T22:06:26.900Z,11.25
2023-02-02T22:09:04.145Z,11.25
2023-02-02T22:11:45.563Z,11.28
2023-02-02T22:14:20.470Z,11.15
2023-02-02T22:16:52.352Z,11.29
2023-02-02T22:19:29.698Z,11.27
2023-02-02T22:22:15.579Z,11.03
2023-02-02T22:24:47.053Z,10.60
2023-02-02T22:27:22.569Z,11.20
2023-02-02T22:29:55.505Z,11.06
2023-02-02T22:32:23.876Z,11.08
2023-02-02T22:34:52.176Z,11.20
2023-02-02T22:37:20.540Z,11.25
2023-02-02T22:39:50.255Z,11.14
2023-02-02T22:42:18.878Z,11.13
2023-02-02T22:44:48.277Z,11.27
2023-02-02T22:47:16.618Z,11.24
2023-02-02T22:49:44.942Z,11.23
2023-02-02T22:52:13.314Z,11.12
2023-02-02T22:54:41.614Z,11.22
2023-02-02T22:57:11.403Z,11.13
2023-02-02T22:59:39.781Z,11.08
2023-02-02T23:02:08.138Z,11.09
2023-02-02T23:04:36.458Z,10.82
2023-02-02T23:07:04.857Z,11.02
2023-02-02T23:09:33.241Z,11.10
2023-02-02T23:12:01.882Z,11.10
2023-02-02T23:14:31.558Z,11.08
2023-02-02T23:17:00.267Z,11.02
2023-02-02T23:19:31.249Z,11.11
2023-02-02T23:21:59.761Z,11.03
2023-02-02T23:24:28.173Z,11.03
2023-02-02T23:26:56.692Z,11.06
2023-02-02T23:29:25.077Z,11.05
2023-02-02T23:31:54.945Z,11.01
2023-02-02T23:34:23.318Z,11.09
2023-02-02T23:36:53.560Z,10.95
2023-02-02T23:39:21.962Z,11.06
2023-02-02T23:41:50.277Z,10.93
2023-02-02T23:44:18.876Z,10.99
2023-02-02T23:46:47.481Z,10.99
2023-02-02T23:49:17.539Z,10.83
2023-02-02T23:51:46.221Z,10.15
2023-02-02T23:54:16.346Z,11.00
2023-02-02T23:56:44.813Z,10.98
2023-02-02T23:59:13.198Z,10.97
